Terminal Aerodrome Forecast
Issued by NWS

Home | Current Version | Previous Version | Text Only | Print | Product List | Glossary On
Versions: 1 2 3 4 5 6 7 8 9 10 11 12 13 14 15 16 17 18
000
FTUS45 KSLC 271120
TAFBCE
TAF
KBCE 271120Z 2712/2812 33007KT P6SM SCT100
     FM271800 33011KT P6SM VCSH SCT070 BKN100
     FM280200 28006KT P6SM FEW080 SCT120=

USA.gov is the U.S. government's official web portal to all federal, state and local government web resources and services.